Newburg, Iowa
Current Conditions -  °F | °C
As of 9:55 PM on Friday 24 Oct 2014 (Local Time) from KGGI Reporting Station
Haze Haze  
Wind Chill: 57°   Ceiling: 700
Heat Index: 57°   Visibility: 1mi
Dew Point: 56°   Wind: 6mph
Humidity: 97%   Direction: 200°SSW
Pressure: 29.95"   Gusts: NA
Location:  41.7319°N, 92.7662°W
Report Text: KGGI 250255Z AUTO 20005KT 1SM BR VV007 14/13 A2995 RMK AO2 T01370132
Loading
Personal Weather Stations






























Interactive Weather Map
Tropical Storm Tracking
New forecast layout! Learn more

10-Day Weather Forecast

Advertisements
Track Severe Weather on mobile